sensor_id;sensor_type;location;lat;lon;timestamp;pressure;altitude;pressure_sealevel;temperature;humidity
54806;BME280;62866;55.776;37.496;2023-04-26T00:01:00;98618.38;;;11.91;81.74
54806;BME280;62866;55.776;37.496;2023-04-26T00:03:29;98615.69;;;11.91;80.49
54806;BME280;62866;55.776;37.496;2023-04-26T00:05:54;98610.03;;;11.81;82.06
54806;BME280;62866;55.776;37.496;2023-04-26T00:08:20;98602.28;;;11.73;81.87
54806;BME280;62866;55.776;37.496;2023-04-26T00:10:46;98605.16;;;11.78;82.30
54806;BME280;62866;55.776;37.496;2023-04-26T00:13:11;98593.28;;;11.67;82.23
54806;BME280;62866;55.776;37.496;2023-04-26T00:15:37;98592.38;;;11.73;82.22
54806;BME280;62866;55.776;37.496;2023-04-26T00:18:02;98596.31;;;11.77;82.64
54806;BME280;62866;55.776;37.496;2023-04-26T00:20:28;98583.34;;;11.74;82.26
54806;BME280;62866;55.776;37.496;2023-04-26T00:22:54;98579.53;;;11.64;82.37
54806;BME280;62866;55.776;37.496;2023-04-26T00:25:19;98587.44;;;11.59;82.69
54806;BME280;62866;55.776;37.496;2023-04-26T00:27:45;98583.34;;;11.56;83.34
54806;BME280;62866;55.776;37.496;2023-04-26T00:30:11;98589.28;;;11.58;83.92
54806;BME280;62866;55.776;37.496;2023-04-26T00:32:36;98584.66;;;11.65;84.01
54806;BME280;62866;55.776;37.496;2023-04-26T00:35:03;98592.88;;;11.70;83.83
54806;BME280;62866;55.776;37.496;2023-04-26T00:37:29;98581.69;;;11.73;84.18
54806;BME280;62866;55.776;37.496;2023-04-26T00:39:54;98570.63;;;11.70;84.09
54806;BME280;62866;55.776;37.496;2023-04-26T00:42:21;98565.63;;;11.73;84.21
54806;BME280;62866;55.776;37.496;2023-04-26T00:44:47;98572.63;;;11.74;83.78
54806;BME280;62866;55.776;37.496;2023-04-26T00:47:14;98571.97;;;11.79;84.24
54806;BME280;62866;55.776;37.496;2023-04-26T00:49:40;98563.94;;;11.79;84.11
54806;BME280;62866;55.776;37.496;2023-04-26T00:52:06;98559.84;;;11.76;84.41
54806;BME280;62866;55.776;37.496;2023-04-26T00:54:32;98548.72;;;11.73;84.68
54806;BME280;62866;55.776;37.496;2023-04-26T00:56:57;98558.00;;;11.77;84.47
54806;BME280;62866;55.776;37.496;2023-04-26T00:59:25;98548.53;;;11.74;84.57
54806;BME280;62866;55.776;37.496;2023-04-26T01:01:51;98551.06;;;11.69;83.70
54806;BME280;62866;55.776;37.496;2023-04-26T01:04:16;98547.78;;;11.67;84.06
54806;BME280;62866;55.776;37.496;2023-04-26T01:06:43;98535.09;;;11.63;83.90
54806;BME280;62866;55.776;37.496;2023-04-26T01:09:08;98537.28;;;11.66;84.12
54806;BME280;62866;55.776;37.496;2023-04-26T01:11:36;98530.78;;;11.62;84.34
54806;BME280;62866;55.776;37.496;2023-04-26T01:14:05;98534.63;;;11.66;84.42
54806;BME280;62866;55.776;37.496;2023-04-26T01:16:32;98534.84;;;11.64;84.84
54806;BME280;62866;55.776;37.496;2023-04-26T01:19:09;98532.16;;;11.64;84.94
54806;BME280;62866;55.776;37.496;2023-04-26T01:21:37;98529.03;;;11.67;84.50
54806;BME280;62866;55.776;37.496;2023-04-26T01:24:02;98531.28;;;11.70;84.93
54806;BME280;62866;55.776;37.496;2023-04-26T01:26:29;98516.69;;;11.66;84.04
54806;BME280;62866;55.776;37.496;2023-04-26T01:28:55;98523.81;;;11.72;84.28
54806;BME280;62866;55.776;37.496;2023-04-26T01:31:21;98523.19;;;11.77;84.28
54806;BME280;62866;55.776;37.496;2023-04-26T01:33:46;98503.31;;;11.66;83.73
54806;BME280;62866;55.776;37.496;2023-04-26T01:36:12;98511.66;;;11.76;83.81
54806;BME280;62866;55.776;37.496;2023-04-26T01:38:37;98496.63;;;11.75;83.95
54806;BME280;62866;55.776;37.496;2023-04-26T01:41:03;98491.88;;;11.77;84.16
54806;BME280;62866;55.776;37.496;2023-04-26T01:43:29;98496.31;;;11.84;84.26
54806;BME280;62866;55.776;37.496;2023-04-26T01:45:54;98496.09;;;11.85;83.92
54806;BME280;62866;55.776;37.496;2023-04-26T01:48:20;98491.16;;;11.82;83.85
54806;BME280;62866;55.776;37.496;2023-04-26T01:50:45;98483.00;;;11.77;83.36
54806;BME280;62866;55.776;37.496;2023-04-26T01:53:11;98479.94;;;11.73;83.75
54806;BME280;62866;55.776;37.496;2023-04-26T01:55:37;98476.25;;;11.74;84.12
54806;BME280;62866;55.776;37.496;2023-04-26T01:58:02;98484.88;;;11.76;84.03
54806;BME280;62866;55.776;37.496;2023-04-26T02:00:28;98476.03;;;11.76;84.13
54806;BME280;62866;55.776;37.496;2023-04-26T02:02:54;98481.59;;;11.74;83.93
54806;BME280;62866;55.776;37.496;2023-04-26T02:05:20;98481.44;;;11.69;84.33
54806;BME280;62866;55.776;37.496;2023-04-26T02:07:46;98475.41;;;11.74;85.11
54806;BME280;62866;55.776;37.496;2023-04-26T02:10:12;98471.50;;;11.76;85.02
54806;BME280;62866;55.776;37.496;2023-04-26T02:12:38;98458.72;;;11.72;84.75
54806;BME280;62866;55.776;37.496;2023-04-26T02:15:04;98463.88;;;11.73;85.13
54806;BME280;62866;55.776;37.496;2023-04-26T02:17:31;98461.38;;;11.78;85.51
54806;BME280;62866;55.776;37.496;2023-04-26T02:19:56;98454.38;;;11.77;85.57
54806;BME280;62866;55.776;37.496;2023-04-26T02:22:23;98463.88;;;11.73;85.08
54806;BME280;62866;55.776;37.496;2023-04-26T02:24:52;98459.38;;;11.56;85.51
54806;BME280;62866;55.776;37.496;2023-04-26T02:27:18;98450.84;;;11.47;85.40
54806;BME280;62866;55.776;37.496;2023-04-26T02:29:44;98458.81;;;11.54;85.37
54806;BME280;62866;55.776;37.496;2023-04-26T02:32:13;98450.41;;;11.50;86.09
54806;BME280;62866;55.776;37.496;2023-04-26T02:34:39;98454.72;;;11.51;86.22
54806;BME280;62866;55.776;37.496;2023-04-26T02:37:05;98449.00;;;11.48;86.17
54806;BME280;62866;55.776;37.496;2023-04-26T02:39:31;98446.09;;;11.49;86.62
54806;BME280;62866;55.776;37.496;2023-04-26T02:41:57;98421.38;;;11.35;86.73
54806;BME280;62866;55.776;37.496;2023-04-26T02:44:23;98439.31;;;11.47;86.68
54806;BME280;62866;55.776;37.496;2023-04-26T02:46:49;98430.94;;;11.43;86.59
54806;BME280;62866;55.776;37.496;2023-04-26T02:49:15;98430.50;;;11.46;86.82
54806;BME280;62866;55.776;37.496;2023-04-26T02:51:40;98429.31;;;11.42;86.09
54806;BME280;62866;55.776;37.496;2023-04-26T02:54:06;98434.53;;;11.37;86.63
54806;BME280;62866;55.776;37.496;2023-04-26T02:56:32;98425.31;;;11.33;87.00
54806;BME280;62866;55.776;37.496;2023-04-26T02:58:57;98434.75;;;11.35;87.21
54806;BME280;62866;55.776;37.496;2023-04-26T03:01:23;98432.09;;;11.35;87.02
54806;BME280;62866;55.776;37.496;2023-04-26T03:03:49;98413.97;;;11.19;87.21
54806;BME280;62866;55.776;37.496;2023-04-26T03:06:15;98415.69;;;11.14;87.68
54806;BME280;62866;55.776;37.496;2023-04-26T03:08:40;98423.28;;;11.17;87.75
54806;BME280;62866;55.776;37.496;2023-04-26T03:11:06;98414.50;;;11.10;87.81
54806;BME280;62866;55.776;37.496;2023-04-26T03:13:31;98421.19;;;11.19;88.32
54806;BME280;62866;55.776;37.496;2023-04-26T03:15:57;98414.13;;;11.24;87.96
54806;BME280;62866;55.776;37.496;2023-04-26T03:18:22;98407.50;;;11.27;88.30
54806;BME280;62866;55.776;37.496;2023-04-26T03:20:49;98405.03;;;11.25;88.59
54806;BME280;62866;55.776;37.496;2023-04-26T03:23:14;98410.53;;;11.30;88.33
54806;BME280;62866;55.776;37.496;2023-04-26T03:25:40;98408.97;;;11.23;88.47
54806;BME280;62866;55.776;37.496;2023-04-26T03:28:05;98411.09;;;11.21;88.67
54806;BME280;62866;55.776;37.496;2023-04-26T03:30:31;98409.56;;;11.25;88.90
54806;BME280;62866;55.776;37.496;2023-04-26T03:32:56;98402.81;;;11.22;89.01
54806;BME280;62866;55.776;37.496;2023-04-26T03:35:22;98407.81;;;11.19;89.18
54806;BME280;62866;55.776;37.496;2023-04-26T03:37:48;98405.44;;;11.11;89.43
54806;BME280;62866;55.776;37.496;2023-04-26T03:40:13;98399.88;;;11.12;89.62
54806;BME280;62866;55.776;37.496;2023-04-26T03:42:41;98394.66;;;11.17;89.68
54806;BME280;62866;55.776;37.496;2023-04-26T03:45:07;98382.75;;;11.13;90.20
54806;BME280;62866;55.776;37.496;2023-04-26T03:47:32;98378.97;;;11.21;89.80
54806;BME280;62866;55.776;37.496;2023-04-26T03:49:58;98389.50;;;11.34;89.94
54806;BME280;62866;55.776;37.496;2023-04-26T03:52:24;98392.16;;;11.34;90.04
54806;BME280;62866;55.776;37.496;2023-04-26T03:54:49;98386.81;;;11.34;89.99
54806;BME280;62866;55.776;37.496;2023-04-26T03:57:15;98391.47;;;11.38;89.67
54806;BME280;62866;55.776;37.496;2023-04-26T03:59:40;98382.41;;;11.39;89.82
54806;BME280;62866;55.776;37.496;2023-04-26T04:02:06;98383.00;;;11.41;89.75
54806;BME280;62866;55.776;37.496;2023-04-26T04:04:31;98385.09;;;11.39;89.82
54806;BME280;62866;55.776;37.496;2023-04-26T04:06:58;98384.97;;;11.34;89.68
54806;BME280;62866;55.776;37.496;2023-04-26T04:09:23;98377.88;;;11.40;90.04
54806;BME280;62866;55.776;37.496;2023-04-26T04:11:49;98371.84;;;11.45;90.51
54806;BME280;62866;55.776;37.496;2023-04-26T04:14:15;98375.56;;;11.44;90.25
54806;BME280;62866;55.776;37.496;2023-04-26T04:16:40;98382.88;;;11.36;90.56
54806;BME280;62866;55.776;37.496;2023-04-26T04:19:06;98376.72;;;11.36;90.36
54806;BME280;62866;55.776;37.496;2023-04-26T04:21:31;98370.97;;;11.32;90.81
54806;BME280;62866;55.776;37.496;2023-04-26T04:23:57;98366.44;;;11.33;90.83
54806;BME280;62866;55.776;37.496;2023-04-26T04:26:22;98378.59;;;11.47;90.46
54806;BME280;62866;55.776;37.496;2023-04-26T04:28:48;98377.31;;;11.50;90.66
54806;BME280;62866;55.776;37.496;2023-04-26T04:31:14;98376.88;;;11.53;90.53
54806;BME280;62866;55.776;37.496;2023-04-26T04:33:39;98374.78;;;11.55;90.47
54806;BME280;62866;55.776;37.496;2023-04-26T04:36:05;98368.75;;;11.59;90.75
54806;BME280;62866;55.776;37.496;2023-04-26T04:38:31;98371.03;;;11.56;90.67
54806;BME280;62866;55.776;37.496;2023-04-26T04:40:57;98372.47;;;11.58;90.53
54806;BME280;62866;55.776;37.496;2023-04-26T04:43:23;98368.75;;;11.59;90.42
54806;BME280;62866;55.776;37.496;2023-04-26T04:45:48;98369.88;;;11.52;90.76
54806;BME280;62866;55.776;37.496;2023-04-26T04:48:14;98374.53;;;11.56;90.54
54806;BME280;62866;55.776;37.496;2023-04-26T04:50:40;98376.06;;;11.52;90.56
54806;BME280;62866;55.776;37.496;2023-04-26T04:53:09;98362.91;;;11.51;90.72
54806;BME280;62866;55.776;37.496;2023-04-26T04:55:34;98373.16;;;11.65;91.05
54806;BME280;62866;55.776;37.496;2023-04-26T04:58:02;98364.91;;;11.67;91.01
54806;BME280;62866;55.776;37.496;2023-04-26T05:00:28;98366.91;;;11.71;90.64
54806;BME280;62866;55.776;37.496;2023-04-26T05:02:54;98363.34;;;11.77;90.66
54806;BME280;62866;55.776;37.496;2023-04-26T05:05:19;98369.75;;;11.88;90.47
54806;BME280;62866;55.776;37.496;2023-04-26T05:07:45;98360.09;;;11.87;90.50
54806;BME280;62866;55.776;37.496;2023-04-26T05:10:11;98363.94;;;11.91;90.22
54806;BME280;62866;55.776;37.496;2023-04-26T05:12:36;98365.19;;;11.89;90.04
54806;BME280;62866;55.776;37.496;2023-04-26T05:15:03;98364.16;;;11.90;90.31
54806;BME280;62866;55.776;37.496;2023-04-26T05:17:29;98367.88;;;12.00;90.29
54806;BME280;62866;55.776;37.496;2023-04-26T05:19:56;98360.44;;;12.02;90.14
54806;BME280;62866;55.776;37.496;2023-04-26T05:22:22;98354.94;;;11.97;89.77
54806;BME280;62866;55.776;37.496;2023-04-26T05:24:48;98355.28;;;11.89;90.19
54806;BME280;62866;55.776;37.496;2023-04-26T05:27:14;98365.00;;;12.02;90.36
54806;BME280;62866;55.776;37.496;2023-04-26T05:29:39;98351.34;;;11.92;90.19
54806;BME280;62866;55.776;37.496;2023-04-26T05:32:05;98368.13;;;11.99;90.35
54806;BME280;62866;55.776;37.496;2023-04-26T05:34:31;98362.28;;;11.90;90.64
54806;BME280;62866;55.776;37.496;2023-04-26T05:36:57;98361.38;;;11.96;90.46
54806;BME280;62866;55.776;37.496;2023-04-26T05:39:23;98359.84;;;12.00;90.57
54806;BME280;62866;55.776;37.496;2023-04-26T05:41:48;98364.06;;;12.08;90.51
54806;BME280;62866;55.776;37.496;2023-04-26T05:44:14;98360.19;;;12.15;90.41
54806;BME280;62866;55.776;37.496;2023-04-26T05:46:40;98358.00;;;12.24;90.26
54806;BME280;62866;55.776;37.496;2023-04-26T05:49:05;98362.88;;;12.15;89.77
54806;BME280;62866;55.776;37.496;2023-04-26T05:51:31;98362.06;;;12.15;90.38
54806;BME280;62866;55.776;37.496;2023-04-26T05:53:56;98365.09;;;12.30;90.59
54806;BME280;62866;55.776;37.496;2023-04-26T05:56:22;98368.59;;;12.31;89.71
54806;BME280;62866;55.776;37.496;2023-04-26T05:58:48;98365.09;;;12.42;89.97
54806;BME280;62866;55.776;37.496;2023-04-26T06:01:14;98367.06;;;12.46;89.56
54806;BME280;62866;55.776;37.496;2023-04-26T06:03:40;98364.03;;;12.54;89.32
54806;BME280;62866;55.776;37.496;2023-04-26T06:06:06;98351.69;;;12.53;89.78
54806;BME280;62866;55.776;37.496;2023-04-26T06:08:32;98372.16;;;12.60;89.62
54806;BME280;62866;55.776;37.496;2023-04-26T06:10:58;98365.09;;;12.53;89.52
54806;BME280;62866;55.776;37.496;2023-04-26T06:13:23;98358.09;;;12.41;89.48
54806;BME280;62866;55.776;37.496;2023-04-26T06:15:49;98350.06;;;12.29;89.69
54806;BME280;62866;55.776;37.496;2023-04-26T06:18:15;98361.50;;;12.36;89.77
54806;BME280;62866;55.776;37.496;2023-04-26T06:20:40;98361.34;;;12.43;89.75
54806;BME280;62866;55.776;37.496;2023-04-26T06:23:06;98368.22;;;12.50;89.22
54806;BME280;62866;55.776;37.496;2023-04-26T06:25:32;98368.22;;;12.50;89.86
54806;BME280;62866;55.776;37.496;2023-04-26T06:27:58;98354.59;;;12.52;89.23
54806;BME280;62866;55.776;37.496;2023-04-26T06:30:24;98378.81;;;12.69;88.96
54806;BME280;62866;55.776;37.496;2023-04-26T06:32:50;98372.06;;;12.54;88.60
54806;BME280;62866;55.776;37.496;2023-04-26T06:35:16;98375.81;;;12.53;89.58
54806;BME280;62866;55.776;37.496;2023-04-26T06:37:41;98372.91;;;12.55;89.61
54806;BME280;62866;55.776;37.496;2023-04-26T06:40:07;98374.72;;;12.66;89.51
54806;BME280;62866;55.776;37.496;2023-04-26T06:42:33;98381.47;;;12.69;89.82
54806;BME280;62866;55.776;37.496;2023-04-26T06:44:58;98374.47;;;12.79;90.12
54806;BME280;62866;55.776;37.496;2023-04-26T06:47:24;98379.56;;;12.92;89.66
54806;BME280;62866;55.776;37.496;2023-04-26T06:49:49;98378.84;;;12.97;89.43
54806;BME280;62866;55.776;37.496;2023-04-26T06:52:16;98377.59;;;12.88;89.19
54806;BME280;62866;55.776;37.496;2023-04-26T06:54:41;98380.28;;;12.88;89.28
54806;BME280;62866;55.776;37.496;2023-04-26T06:57:07;98388.69;;;12.80;89.30
54806;BME280;62866;55.776;37.496;2023-04-26T06:59:32;98397.91;;;12.72;89.64
54806;BME280;62866;55.776;37.496;2023-04-26T07:01:58;98392.78;;;12.71;89.72
54806;BME280;62866;55.776;37.496;2023-04-26T07:04:24;98394.53;;;12.65;89.58
54806;BME280;62866;55.776;37.496;2023-04-26T07:06:50;98386.31;;;12.55;89.86
54806;BME280;62866;55.776;37.496;2023-04-26T07:09:16;98385.69;;;12.65;90.21
54806;BME280;62866;55.776;37.496;2023-04-26T07:11:45;98393.97;;;12.63;89.94
54806;BME280;62866;55.776;37.496;2023-04-26T07:14:11;98388.03;;;12.61;89.71
54806;BME280;62866;55.776;37.496;2023-04-26T07:16:37;98401.75;;;12.65;89.45
54806;BME280;62866;55.776;37.496;2023-04-26T07:19:02;98399.44;;;12.68;89.75
54806;BME280;62866;55.776;37.496;2023-04-26T07:21:28;98397.44;;;12.75;90.10
54806;BME280;62866;55.776;37.496;2023-04-26T07:23:57;98403.97;;;12.79;89.51
54806;BME280;62866;55.776;37.496;2023-04-26T07:26:24;98401.75;;;12.88;89.35
54806;BME280;62866;55.776;37.496;2023-04-26T07:28:51;98403.47;;;12.94;89.47
54806;BME280;62866;55.776;37.496;2023-04-26T07:31:17;98404.16;;;13.01;88.80
54806;BME280;62866;55.776;37.496;2023-04-26T07:33:43;98383.06;;;12.93;88.46
54806;BME280;62866;55.776;37.496;2023-04-26T07:36:08;98405.06;;;13.07;88.49
54806;BME280;62866;55.776;37.496;2023-04-26T07:38:34;98406.22;;;13.11;88.57
54806;BME280;62866;55.776;37.496;2023-04-26T07:41:00;98406.47;;;13.21;88.16
54806;BME280;62866;55.776;37.496;2023-04-26T07:43:26;98406.91;;;13.29;88.05
54806;BME280;62866;55.776;37.496;2023-04-26T07:45:52;98415.00;;;13.46;88.42
54806;BME280;62866;55.776;37.496;2023-04-26T07:48:17;98415.75;;;13.30;88.40
54806;BME280;62866;55.776;37.496;2023-04-26T07:50:43;98415.06;;;13.23;88.91
54806;BME280;62866;55.776;37.496;2023-04-26T07:53:09;98410.28;;;13.25;88.98
54806;BME280;62866;55.776;37.496;2023-04-26T07:55:35;98426.34;;;13.37;88.93
54806;BME280;62866;55.776;37.496;2023-04-26T07:58:02;98412.84;;;13.48;88.35
54806;BME280;62866;55.776;37.496;2023-04-26T08:00:28;98421.25;;;13.52;88.04
54806;BME280;62866;55.776;37.496;2023-04-26T08:02:54;98427.59;;;13.46;87.93
54806;BME280;62866;55.776;37.496;2023-04-26T08:05:19;98427.59;;;13.46;88.24
54806;BME280;62866;55.776;37.496;2023-04-26T08:07:45;98425.00;;;13.51;87.56
54806;BME280;62866;55.776;37.496;2023-04-26T08:10:10;98425.56;;;13.53;87.67
54806;BME280;62866;55.776;37.496;2023-04-26T08:12:37;98428.69;;;13.61;87.15
54806;BME280;62866;55.776;37.496;2023-04-26T08:15:03;98422.34;;;13.67;86.78
54806;BME280;62866;55.776;37.496;2023-04-26T08:17:29;98433.09;;;13.67;86.52
54806;BME280;62866;55.776;37.496;2023-04-26T08:19:56;98431.25;;;13.85;86.54
54806;BME280;62866;55.776;37.496;2023-04-26T08:22:22;98436.63;;;14.01;86.48
54806;BME280;62866;55.776;37.496;2023-04-26T08:24:49;98438.50;;;14.01;86.22
54806;BME280;62866;55.776;37.496;2023-04-26T08:27:15;98447.31;;;13.96;85.95
54806;BME280;62866;55.776;37.496;2023-04-26T08:29:41;98442.88;;;13.90;86.50
54806;BME280;62866;55.776;37.496;2023-04-26T08:32:07;98439.38;;;13.90;86.73
54806;BME280;62866;55.776;37.496;2023-04-26T08:34:33;98437.78;;;13.89;86.88
54806;BME280;62866;55.776;37.496;2023-04-26T08:36:58;98445.03;;;13.88;86.80
54806;BME280;62866;55.776;37.496;2023-04-26T08:39:24;98444.09;;;13.83;86.53
54806;BME280;62866;55.776;37.496;2023-04-26T08:41:52;98441.34;;;13.78;86.81
54806;BME280;62866;55.776;37.496;2023-04-26T08:44:23;98451.06;;;13.67;86.97
54806;BME280;62866;55.776;37.496;2023-04-26T08:47:03;98442.81;;;13.57;87.22
54806;BME280;62866;55.776;37.496;2023-04-26T08:49:40;98449.25;;;13.56;87.12
54806;BME280;62866;55.776;37.496;2023-04-26T08:52:14;98447.38;;;13.56;86.73
54806;BME280;62866;55.776;37.496;2023-04-26T08:54:41;98449.25;;;13.56;87.18
54806;BME280;62866;55.776;37.496;2023-04-26T08:57:07;98456.59;;;13.60;86.97
54806;BME280;62866;55.776;37.496;2023-04-26T08:59:37;98450.50;;;13.65;87.50
54806;BME280;62866;55.776;37.496;2023-04-26T09:02:06;98449.78;;;13.70;87.10
54806;BME280;62866;55.776;37.496;2023-04-26T09:04:32;98454.78;;;13.78;86.79
54806;BME280;62866;55.776;37.496;2023-04-26T09:07:02;98449.06;;;13.91;87.02
54806;BME280;62866;55.776;37.496;2023-04-26T09:09:34;98455.03;;;13.93;86.74
54806;BME280;62866;55.776;37.496;2023-04-26T09:12:03;98454.56;;;13.96;86.11
54806;BME280;62866;55.776;37.496;2023-04-26T09:14:29;98451.88;;;13.96;86.10
54806;BME280;62866;55.776;37.496;2023-04-26T09:16:55;98466.41;;;13.83;86.60
54806;BME280;62866;55.776;37.496;2023-04-26T09:19:38;98468.03;;;13.84;87.30
54806;BME280;62866;55.776;37.496;2023-04-26T09:22:05;98468.63;;;13.86;87.63
54806;BME280;62866;55.776;37.496;2023-04-26T09:24:47;98469.09;;;13.83;87.54
54806;BME280;62866;55.776;37.496;2023-04-26T09:27:14;98467.84;;;13.74;87.64
54806;BME280;62866;55.776;37.496;2023-04-26T09:29:56;98471.97;;;13.65;88.31
54806;BME280;62866;55.776;37.496;2023-04-26T09:32:21;98465.19;;;13.46;88.55
54806;BME280;62866;55.776;37.496;2023-04-26T09:34:47;98461.41;;;13.18;89.02
54806;BME280;62866;55.776;37.496;2023-04-26T09:37:13;98470.50;;;13.06;89.52
54806;BME280;62866;55.776;37.496;2023-04-26T09:39:40;98457.81;;;12.89;89.86
54806;BME280;62866;55.776;37.496;2023-04-26T09:42:09;98476.50;;;12.96;89.49
54806;BME280;62866;55.776;37.496;2023-04-26T09:44:36;98470.63;;;12.99;89.24
54806;BME280;62866;55.776;37.496;2023-04-26T09:47:10;98469.25;;;12.97;89.14
54806;BME280;62866;55.776;37.496;2023-04-26T09:49:49;98482.63;;;13.08;89.17
54806;BME280;62866;55.776;37.496;2023-04-26T09:52:16;98474.03;;;13.18;88.91
54806;BME280;62866;55.776;37.496;2023-04-26T09:54:50;98476.31;;;13.38;89.21
54806;BME280;62866;55.776;37.496;2023-04-26T09:57:17;98471.25;;;13.41;88.28
54806;BME280;62866;55.776;37.496;2023-04-26T09:59:48;98488.16;;;13.53;89.11
54806;BME280;62866;55.776;37.496;2023-04-26T10:02:23;98481.59;;;13.61;88.55
54806;BME280;62866;55.776;37.496;2023-04-26T10:04:50;98485.28;;;13.72;87.86
54806;BME280;62866;55.776;37.496;2023-04-26T10:07:18;98490.81;;;13.82;87.91
54806;BME280;62866;55.776;37.496;2023-04-26T10:09:45;98495.00;;;13.89;87.62
54806;BME280;62866;55.776;37.496;2023-04-26T10:12:13;98499.91;;;13.92;87.51
54806;BME280;62866;55.776;37.496;2023-04-26T10:14:40;98504.78;;;13.95;87.57
54806;BME280;62866;55.776;37.496;2023-04-26T10:17:06;98500.31;;;14.01;87.85
54806;BME280;62866;55.776;37.496;2023-04-26T10:19:35;98491.97;;;14.14;87.70
54806;BME280;62866;55.776;37.496;2023-04-26T10:22:08;98501.41;;;14.33;87.87
54806;BME280;62866;55.776;37.496;2023-04-26T10:24:35;98492.03;;;14.36;86.89
54806;BME280;62866;55.776;37.496;2023-04-26T10:27:02;98506.50;;;14.47;86.91
54806;BME280;62866;55.776;37.496;2023-04-26T10:32:21;98512.69;;;14.64;86.99
54806;BME280;62866;55.776;37.496;2023-04-26T10:35:22;98503.47;;;14.43;87.02
54806;BME280;62866;55.776;37.496;2023-04-26T10:40:33;98515.66;;;14.17;88.10
54806;BME280;62866;55.776;37.496;2023-04-26T10:45:41;98516.00;;;13.92;88.44
54806;BME280;62866;55.776;37.496;2023-04-26T10:58:48;98520.13;;;14.12;86.48
54806;BME280;62866;55.776;37.496;2023-04-26T11:01:14;98516.88;;;14.26;86.15
54806;BME280;62866;55.776;37.496;2023-04-26T11:06:22;98527.19;;;14.79;84.67
54806;BME280;62866;55.776;37.496;2023-04-26T11:08:49;98522.50;;;14.92;83.43
54806;BME280;62866;55.776;37.496;2023-04-26T11:11:15;98527.19;;;15.18;83.12
54806;BME280;62866;55.776;37.496;2023-04-26T11:13:44;98517.13;;;15.30;82.49
54806;BME280;62866;55.776;37.496;2023-04-26T11:16:15;98526.72;;;15.43;82.39
54806;BME280;62866;55.776;37.496;2023-04-26T11:18:45;98534.19;;;15.57;81.79
54806;BME280;62866;55.776;37.496;2023-04-26T11:21:11;98532.88;;;15.60;81.19
54806;BME280;62866;55.776;37.496;2023-04-26T11:23:39;98525.84;;;15.81;80.97
54806;BME280;62866;55.776;37.496;2023-04-26T11:26:06;98535.78;;;16.02;80.81
54806;BME280;62866;55.776;37.496;2023-04-26T11:28:37;98507.75;;;16.03;80.55
54806;BME280;62866;55.776;37.496;2023-04-26T11:31:04;98541.97;;;16.29;79.25
54806;BME280;62866;55.776;37.496;2023-04-26T11:33:31;98546.84;;;16.32;78.66
54806;BME280;62866;55.776;37.496;2023-04-26T11:35:58;98553.59;;;16.30;77.99
54806;BME280;62866;55.776;37.496;2023-04-26T11:38:25;98546.66;;;16.12;78.10
54806;BME280;62866;55.776;37.496;2023-04-26T11:41:06;98557.69;;;16.11;78.33
54806;BME280;62866;55.776;37.496;2023-04-26T11:46:02;98542.06;;;15.86;78.11
54806;BME280;62866;55.776;37.496;2023-04-26T11:48:29;98553.72;;;15.91;78.33
54806;BME280;62866;55.776;37.496;2023-04-26T11:50:59;98554.16;;;16.05;77.84
54806;BME280;62866;55.776;37.496;2023-04-26T11:53:34;98561.19;;;16.06;77.71
54806;BME280;62866;55.776;37.496;2023-04-26T11:56:00;98572.91;;;15.95;76.85
54806;BME280;62866;55.776;37.496;2023-04-26T11:58:26;98568.66;;;15.77;77.45
54806;BME280;62866;55.776;37.496;2023-04-26T12:01:00;98576.88;;;15.49;77.42
54806;BME280;62866;55.776;37.496;2023-04-26T12:03:33;98590.81;;;15.24;77.95
54806;BME280;62866;55.776;37.496;2023-04-26T12:06:03;98586.69;;;15.00;77.83
54806;BME280;62866;55.776;37.496;2023-04-26T12:08:31;98581.50;;;14.76;78.18
54806;BME280;62866;55.776;37.496;2023-04-26T12:11:01;98593.72;;;14.67;78.65
54806;BME280;62866;55.776;37.496;2023-04-26T12:13:28;98583.19;;;14.49;78.31
54806;BME280;62866;55.776;37.496;2023-04-26T12:15:54;98582.22;;;14.38;78.95
54806;BME280;62866;55.776;37.496;2023-04-26T12:18:20;98579.16;;;14.35;79.09
54806;BME280;62866;55.776;37.496;2023-04-26T12:20:45;98576.28;;;14.25;79.24
54806;BME280;62866;55.776;37.496;2023-04-26T12:23:16;98579.34;;;14.17;79.48
54806;BME280;62866;55.776;37.496;2023-04-26T12:25:52;98587.09;;;14.13;79.10
54806;BME280;62866;55.776;37.496;2023-04-26T12:28:19;98589.28;;;14.16;79.05
54806;BME280;62866;55.776;37.496;2023-04-26T12:30:45;98593.22;;;14.25;79.01
54806;BME280;62866;55.776;37.496;2023-04-26T12:33:10;98582.22;;;14.27;78.21
54806;BME280;62866;55.776;37.496;2023-04-26T12:35:36;98587.50;;;14.50;77.64
54806;BME280;62866;55.776;37.496;2023-04-26T12:38:02;98582.47;;;14.70;76.99
54806;BME280;62866;55.776;37.496;2023-04-26T12:40:28;98585.88;;;14.82;76.52
54806;BME280;62866;55.776;37.496;2023-04-26T12:42:54;98585.56;;;14.96;76.55
54806;BME280;62866;55.776;37.496;2023-04-26T12:45:21;98588.66;;;15.04;76.04
54806;BME280;62866;55.776;37.496;2023-04-26T12:47:47;98582.47;;;15.04;75.94
54806;BME280;62866;55.776;37.496;2023-04-26T12:50:14;98596.28;;;15.29;74.85
54806;BME280;62866;55.776;37.496;2023-04-26T12:52:42;98579.47;;;15.39;74.88
54806;BME280;62866;55.776;37.496;2023-04-26T12:55:11;98592.22;;;15.48;75.22
54806;BME280;62866;55.776;37.496;2023-04-26T12:57:39;98590.91;;;15.51;75.37
54806;BME280;62866;55.776;37.496;2023-04-26T13:00:11;98592.56;;;15.52;74.94
54806;BME280;62866;55.776;37.496;2023-04-26T13:02:37;98580.66;;;15.48;74.05
54806;BME280;62866;55.776;37.496;2023-04-26T13:05:03;98583.50;;;15.41;73.79
54806;BME280;62866;55.776;37.496;2023-04-26T13:07:34;98587.66;;;15.49;73.84
54806;BME280;62866;55.776;37.496;2023-04-26T13:10:00;98578.47;;;15.45;72.44
54806;BME280;62866;55.776;37.496;2023-04-26T13:12:26;98578.13;;;15.41;73.15